ATH weather

Eleftherios Venizelos International Airport
Athens, Attica, Greece

Public forecast

Using degrees Celsius for public forecast. Weather courtesy of forecast.io.

METAR (pilot weather report)

Retrieved 2018/09/21 14:50 UTC (26 minutes ago):

LGAV 211450Z 03019KT CAVOK 24/14 Q1016 NOSIG

TAF (pilot weather forecast)

Retrieved 2018/09/21 12:12 UTC (3 hours ago):

TAF TAF LGAV 211100Z 2112/2212 01015KT 9999 FEW030 TEMPO 2112/2116 01015G25KT BECMG 2121/2123 34010KT